createdAt,value
2022-11-01T10:11:08.632Z,25.23
2022-11-01T10:13:46.774Z,22.35
2022-11-01T10:16:51.757Z,22.85
2022-11-01T10:19:22.148Z,24.52
2022-11-01T10:21:56.567Z,24.05
2022-11-01T10:25:05.199Z,24.40
2022-11-01T10:27:44.842Z,22.63
2022-11-01T10:30:18.468Z,23.50
2022-11-01T10:33:03.975Z,23.15
2022-11-01T10:35:35.683Z,26.30
2022-11-01T10:38:38.156Z,24.48
2022-11-01T10:41:10.276Z,24.67
2022-11-01T10:43:45.784Z,24.30
2022-11-01T10:46:18.618Z,23.67
2022-11-01T10:48:54.867Z,22.65
2022-11-01T10:51:27.784Z,25.20
2022-11-01T10:54:00.926Z,25.27
2022-11-01T10:59:33.687Z,23.83
2022-11-01T11:02:05.789Z,25.23
2022-11-01T11:04:34.619Z,24.73
2022-11-01T11:07:03.373Z,25.55
2022-11-01T11:09:38.798Z,25.20
2022-11-01T11:12:17.000Z,22.83
2022-11-01T11:14:49.522Z,23.30
2022-11-01T11:17:29.204Z,26.70
2022-11-01T11:20:05.254Z,27.23
2022-11-01T11:22:41.858Z,27.13
2022-11-01T11:25:19.893Z,28.02
2022-11-01T11:27:50.613Z,29.42
2022-11-01T11:30:33.611Z,25.20
2022-11-01T11:35:32.993Z,26.13
2022-11-01T11:38:05.443Z,28.98
2022-11-01T11:40:43.569Z,32.28
2022-11-01T11:43:37.532Z,34.08
2022-11-01T11:46:14.093Z,36.30
2022-11-01T11:49:07.349Z,34.88
2022-11-01T11:51:38.302Z,35.70
2022-11-01T11:54:29.329Z,35.25
2022-11-01T11:57:18.442Z,34.53
2022-11-01T11:59:59.485Z,36.17
2022-11-01T12:02:34.964Z,35.25
2022-11-01T12:05:16.713Z,34.70
2022-11-01T12:07:50.664Z,34.92
2022-11-01T12:10:38.072Z,33.85
2022-11-01T12:13:39.204Z,31.90
2022-11-01T12:16:15.068Z,30.20
2022-11-01T12:19:00.059Z,29.85
2022-11-01T12:21:36.839Z,29.20
2022-11-01T12:24:24.217Z,28.42
2022-11-01T12:26:56.203Z,26.90
2022-11-01T12:29:36.013Z,27.58
2022-11-01T12:32:21.134Z,24.13
2022-11-01T12:34:50.266Z,23.70
2022-11-01T12:37:27.145Z,22.40
2022-11-01T12:40:26.803Z,23.13
2022-11-01T12:43:31.105Z,23.50
2022-11-01T12:46:40.078Z,19.63
2022-11-01T12:49:29.714Z,20.60
2022-11-01T12:52:04.354Z,19.83
2022-11-01T12:54:47.694Z,18.88
2022-11-01T12:57:18.386Z,19.15
2022-11-01T12:59:48.495Z,17.63
2022-11-01T13:02:32.533Z,17.90
2022-11-01T13:05:23.891Z,14.40
2022-11-01T13:08:15.144Z,14.18
2022-11-01T13:10:46.757Z,12.57
2022-11-01T13:13:50.915Z,11.63
2022-11-01T13:16:32.535Z,10.45
2022-11-01T13:19:03.895Z,10.20
2022-11-01T13:21:59.886Z,9.60
2022-11-01T13:24:34.094Z,8.77
2022-11-01T13:27:31.903Z,9.50
2022-11-01T13:30:11.139Z,9.05
2022-11-01T13:32:56.205Z,9.07
2022-11-01T13:35:48.741Z,7.13
2022-11-01T13:38:53.250Z,8.10
2022-11-01T13:41:30.377Z,8.13
2022-11-01T13:44:04.203Z,8.35
2022-11-01T13:46:40.138Z,8.48
2022-11-01T13:49:20.022Z,8.80
2022-11-01T13:52:00.673Z,9.25
2022-11-01T13:54:44.798Z,8.18
2022-11-01T13:57:18.102Z,8.25
2022-11-01T13:59:57.736Z,7.40
2022-11-01T14:02:26.537Z,7.53
2022-11-01T14:04:56.876Z,7.38
2022-11-01T14:07:26.965Z,6.63
2022-11-01T14:09:56.815Z,7.57
2022-11-01T14:12:46.659Z,7.20
2022-11-01T14:15:25.999Z,7.53
2022-11-01T14:18:10.763Z,6.28
2022-11-01T14:20:41.301Z,6.97
2022-11-01T14:23:28.204Z,6.68
2022-11-01T14:26:18.924Z,6.47
2022-11-01T14:28:49.472Z,7.00
2022-11-01T14:31:20.212Z,6.18
2022-11-01T14:33:50.432Z,6.22
2022-11-01T14:36:22.131Z,6.47
2022-11-01T14:39:07.452Z,6.80
2022-11-01T14:41:38.570Z,6.00
2022-11-01T14:44:12.503Z,6.18
2022-11-01T14:46:46.726Z,6.75
2022-11-01T14:49:22.216Z,6.15
2022-11-01T14:52:06.070Z,7.25
2022-11-01T14:54:36.467Z,7.10
2022-11-01T14:57:26.126Z,6.95
2022-11-01T14:59:55.617Z,6.63
2022-11-01T15:02:26.347Z,6.00
2022-11-01T15:04:59.617Z,5.80
2022-11-01T15:07:31.199Z,6.57
2022-11-01T15:10:04.256Z,7.22
2022-11-01T15:12:36.204Z,5.50
2022-11-01T15:15:05.425Z,6.70
2022-11-01T15:17:35.055Z,5.93
2022-11-01T15:20:09.156Z,6.18
2022-11-01T15:22:38.409Z,5.60
2022-11-01T15:25:07.515Z,5.70
2022-11-01T15:27:42.423Z,7.32
2022-11-01T15:30:26.611Z,7.68
2022-11-01T15:33:25.151Z,7.78
2022-11-01T15:35:59.701Z,5.57
2022-11-01T15:38:29.448Z,7.68
2022-11-01T15:40:58.267Z,6.57
2022-11-01T15:43:28.140Z,6.80
2022-11-01T15:46:00.978Z,6.45
2022-11-01T15:48:38.392Z,6.95
2022-11-01T15:51:09.856Z,7.82
2022-11-01T15:53:38.967Z,7.80
2022-11-01T15:56:32.981Z,8.32
2022-11-01T15:59:02.249Z,8.18
2022-11-01T16:01:31.520Z,8.73
2022-11-01T16:04:02.079Z,8.38
2022-11-01T16:06:42.967Z,9.77
2022-11-01T16:09:27.157Z,9.57
2022-11-01T16:12:00.570Z,10.20
2022-11-01T16:14:37.889Z,11.35
2022-11-01T16:17:20.707Z,11.57
2022-11-01T16:19:51.777Z,11.45
2022-11-01T16:22:37.142Z,13.07
2022-11-01T16:25:15.616Z,12.63
2022-11-01T16:28:26.831Z,12.18
2022-11-01T16:30:56.748Z,11.90
2022-11-01T16:33:35.759Z,12.23
2022-11-01T16:36:20.892Z,13.80
2022-11-01T16:38:52.197Z,11.77
2022-11-01T16:41:39.672Z,13.43
2022-11-01T16:44:15.096Z,15.13
2022-11-01T16:46:45.149Z,14.52
2022-11-01T16:49:18.746Z,16.00
2022-11-01T16:51:47.855Z,20.77
2022-11-01T16:54:16.776Z,18.98
2022-11-01T16:56:50.896Z,16.75
2022-11-01T17:03:39.581Z,13.93
2022-11-01T17:06:08.983Z,14.35
2022-11-01T17:08:38.411Z,14.18
2022-11-01T17:11:09.456Z,14.02
2022-11-01T17:13:38.577Z,13.52
2022-11-01T17:16:12.846Z,13.27
2022-11-01T17:18:42.253Z,11.35
2022-11-01T17:21:12.335Z,12.80
2022-11-01T17:23:41.787Z,12.95
2022-11-01T17:26:11.274Z,12.27
2022-11-01T17:28:40.987Z,11.80
2022-11-01T17:31:09.998Z,11.85
2022-11-01T17:33:38.938Z,13.23
2022-11-01T17:36:11.545Z,12.57
2022-11-01T17:38:40.902Z,12.95
2022-11-01T17:41:11.149Z,11.55
2022-11-01T17:43:40.179Z,13.35
2022-11-01T17:46:18.258Z,12.55
2022-11-01T17:48:47.386Z,11.95
2022-11-01T17:51:17.988Z,12.65
2022-11-01T17:53:47.217Z,13.20
2022-11-01T17:56:16.339Z,12.50
2022-11-01T17:58:51.138Z,12.38
2022-11-01T18:01:22.693Z,13.15
2022-11-01T18:03:51.895Z,13.00
2022-11-01T18:06:21.464Z,13.30
2022-11-01T18:08:51.565Z,13.23
2022-11-01T18:11:42.860Z,13.25
2022-11-01T18:14:14.675Z,14.80
2022-11-01T18:16:52.703Z,14.20
2022-11-01T18:19:35.836Z,15.80
2022-11-01T18:24:44.176Z,12.20
2022-11-01T18:27:13.896Z,12.27
2022-11-01T18:29:43.965Z,13.10
2022-11-01T18:32:18.195Z,12.02
2022-11-01T18:34:54.864Z,12.43
2022-11-01T18:37:38.044Z,13.70
2022-11-01T18:40:26.790Z,13.15
2022-11-01T18:42:56.012Z,13.77
2022-11-01T18:45:31.826Z,15.85
2022-11-01T18:48:24.817Z,14.70
2022-11-01T18:51:05.331Z,16.90
2022-11-01T18:53:35.373Z,18.45
2022-11-01T18:56:34.212Z,18.42
2022-11-01T18:59:04.355Z,16.20
2022-11-01T19:01:33.520Z,17.42
2022-11-01T19:04:22.410Z,15.98
2022-11-01T19:06:51.219Z,15.27
2022-11-01T19:09:29.221Z,15.32
2022-11-01T19:12:13.790Z,16.40
2022-11-01T19:14:43.881Z,14.48
2022-11-01T19:17:35.901Z,14.65
2022-11-01T19:20:16.022Z,13.50
2022-11-01T19:22:45.051Z,13.25
2022-11-01T19:25:33.140Z,13.77
2022-11-01T19:28:05.405Z,12.85
2022-11-01T19:30:35.525Z,14.50
2022-11-01T19:33:19.372Z,12.73
2022-11-01T19:35:50.102Z,13.00
2022-11-01T19:38:18.994Z,13.73
2022-11-01T19:40:53.454Z,13.13
2022-11-01T19:43:25.785Z,12.55
2022-11-01T19:45:56.490Z,12.43
2022-11-01T19:48:30.698Z,14.10
2022-11-01T19:51:01.632Z,13.60
2022-11-01T19:53:34.208Z,12.85
2022-11-01T19:56:05.800Z,14.15
2022-11-01T19:58:50.837Z,13.63
2022-11-01T20:01:43.211Z,13.73
2022-11-01T20:04:16.311Z,14.65
2022-11-01T20:09:22.923Z,14.00
2022-11-01T20:11:52.656Z,13.15
2022-11-01T20:14:22.671Z,12.27
2022-11-01T20:16:54.342Z,14.98
2022-11-01T20:19:48.965Z,14.35
